createdAt,value
2022-11-04T00:02:07.543Z,15.10
2022-11-04T00:04:48.246Z,19.20
2022-11-04T00:07:43.450Z,15.30
2022-11-04T00:10:19.480Z,20.73
2022-11-04T00:12:50.320Z,18.75
2022-11-04T00:15:43.521Z,16.83
2022-11-04T00:18:25.473Z,11.93
2022-11-04T00:21:15.563Z,17.60
2022-11-04T00:24:03.884Z,14.32
2022-11-04T00:27:00.423Z,14.35
2022-11-04T00:29:41.428Z,15.68
2022-11-04T00:32:31.159Z,13.90
2022-11-04T00:35:07.570Z,16.95
2022-11-04T00:37:43.435Z,15.75
2022-11-04T00:40:30.601Z,17.48
2022-11-04T00:43:13.875Z,15.85
2022-11-04T00:45:48.749Z,14.88
2022-11-04T00:48:21.298Z,17.35
2022-11-04T00:51:01.405Z,14.00
2022-11-04T00:53:32.549Z,13.48
2022-11-04T00:56:06.194Z,10.80
2022-11-04T00:58:43.234Z,13.00
2022-11-04T01:01:20.461Z,13.38
2022-11-04T01:03:54.835Z,13.32
2022-11-04T01:06:26.780Z,17.80
2022-11-04T01:09:00.020Z,15.13
2022-11-04T01:11:34.571Z,21.85
2022-11-04T01:14:14.273Z,14.93
2022-11-04T01:16:49.278Z,15.65
2022-11-04T01:19:20.242Z,11.85
2022-11-04T01:22:00.575Z,14.32
2022-11-04T01:24:35.855Z,12.93
2022-11-04T01:27:14.704Z,11.55
2022-11-04T01:29:47.270Z,15.27
2022-11-04T01:32:21.626Z,11.13
2022-11-04T01:34:58.109Z,14.65
2022-11-04T01:37:34.680Z,12.02
2022-11-04T01:40:10.386Z,14.43
2022-11-04T01:42:39.465Z,16.75
2022-11-04T01:45:15.674Z,10.80
2022-11-04T01:47:53.279Z,11.50
2022-11-04T01:50:29.322Z,12.85
2022-11-04T01:53:17.302Z,11.80
2022-11-04T01:56:10.790Z,12.57
2022-11-04T01:58:58.735Z,14.40
2022-11-04T02:01:39.146Z,10.30
2022-11-04T02:04:36.115Z,15.63
2022-11-04T02:07:14.120Z,9.95
2022-11-04T02:09:51.259Z,10.52
2022-11-04T02:12:39.910Z,10.32
2022-11-04T02:15:25.770Z,12.95
2022-11-04T02:19:00.187Z,14.23
2022-11-04T02:22:17.722Z,9.32
2022-11-04T02:25:17.685Z,9.93
2022-11-04T02:31:39.011Z,11.13
2022-11-04T02:34:19.598Z,12.18
2022-11-04T02:37:04.618Z,9.38
2022-11-04T02:39:42.842Z,9.35
2022-11-04T02:42:26.078Z,6.33
2022-11-04T02:45:19.859Z,8.40
2022-11-04T02:48:26.879Z,9.38
2022-11-04T02:51:08.416Z,9.70
2022-11-04T02:53:47.378Z,11.80
2022-11-04T02:56:18.290Z,9.73
2022-11-04T02:58:56.283Z,8.75
2022-11-04T03:01:36.436Z,14.90
2022-11-04T03:04:15.652Z,7.65
2022-11-04T03:07:01.762Z,8.63
2022-11-04T03:09:32.728Z,8.23
2022-11-04T03:12:08.531Z,9.00
2022-11-04T03:17:34.717Z,9.43
2022-11-04T03:20:32.528Z,9.07
2022-11-04T03:23:57.713Z,9.10
2022-11-04T03:26:57.696Z,9.90
2022-11-04T03:29:41.768Z,8.10
2022-11-04T03:32:47.215Z,10.52
2022-11-04T03:35:26.356Z,11.90
2022-11-04T03:38:06.986Z,11.52
2022-11-04T03:40:41.725Z,9.15
2022-11-04T03:43:32.430Z,8.65
2022-11-04T03:46:20.533Z,8.52
2022-11-04T03:49:23.114Z,11.70
2022-11-04T03:52:01.923Z,9.00
2022-11-04T03:58:10.932Z,13.00
2022-11-04T04:00:59.020Z,8.00
2022-11-04T04:07:26.386Z,10.77
2022-11-04T04:10:30.637Z,12.18
2022-11-04T04:13:23.005Z,10.20
2022-11-04T04:16:23.390Z,10.25
2022-11-04T04:19:14.067Z,8.43
2022-11-04T04:22:03.032Z,10.05
2022-11-04T04:25:05.400Z,13.25
2022-11-04T04:27:44.309Z,10.88
2022-11-04T04:30:19.199Z,12.27
2022-11-04T04:33:02.818Z,12.13
2022-11-04T04:35:46.910Z,7.00
2022-11-04T04:39:14.131Z,9.30
2022-11-04T04:42:01.486Z,8.10
2022-11-04T04:48:14.521Z,9.05
2022-11-04T04:51:02.838Z,12.18
2022-11-04T04:54:03.921Z,9.70
2022-11-04T05:00:12.439Z,12.07
2022-11-04T05:02:48.584Z,10.30
2022-11-04T05:05:23.064Z,8.95
2022-11-04T05:08:18.844Z,10.50
2022-11-04T05:11:07.464Z,8.20
2022-11-04T05:14:08.376Z,9.02
2022-11-04T05:17:14.311Z,8.80
2022-11-04T05:20:05.096Z,11.13
2022-11-04T05:23:29.538Z,17.33
2022-11-04T05:26:20.807Z,11.13
2022-11-04T05:30:36.257Z,10.77
2022-11-04T05:36:13.693Z,9.50
2022-11-04T05:43:50.670Z,10.85
2022-11-04T05:46:54.747Z,7.95
2022-11-04T05:53:58.577Z,8.23
2022-11-04T05:57:08.390Z,12.63
2022-11-04T06:00:19.456Z,7.72
2022-11-04T06:03:26.142Z,9.15
2022-11-04T06:06:34.725Z,10.18
2022-11-04T06:35:49.941Z,10.52
2022-11-04T06:39:12.564Z,9.75
2022-11-04T06:46:07.324Z,8.80
2022-11-04T06:57:13.358Z,13.18
2022-11-04T07:00:36.078Z,9.40
2022-11-04T07:30:38.439Z,12.75
2022-11-04T07:34:23.140Z,11.07
2022-11-04T07:40:42.053Z,9.73
2022-11-04T07:48:14.929Z,11.05
2022-11-04T08:05:23.662Z,10.82
2022-11-04T08:12:00.689Z,11.77
2022-11-04T08:15:36.686Z,9.10
2022-11-04T08:22:03.259Z,9.13
2022-11-04T08:25:20.343Z,9.55
2022-11-04T08:28:38.952Z,11.25
2022-11-04T08:32:14.518Z,9.53
2022-11-04T08:35:33.238Z,7.45
2022-11-04T08:45:47.332Z,8.48
2022-11-04T08:49:05.739Z,8.98
2022-11-04T08:52:12.193Z,10.10
2022-11-04T08:58:06.101Z,8.25
2022-11-04T09:00:50.389Z,10.73
2022-11-04T09:03:38.918Z,12.15
2022-11-04T09:06:41.767Z,8.65
2022-11-04T09:09:35.957Z,12.60
2022-11-04T09:12:47.269Z,11.20
2022-11-04T09:15:59.294Z,11.02
2022-11-04T09:19:07.752Z,9.25
2022-11-04T09:22:09.031Z,9.10
2022-11-04T09:24:46.346Z,11.45
2022-11-04T09:27:26.109Z,9.63
2022-11-04T09:33:03.486Z,10.48
2022-11-04T09:35:43.667Z,11.57
2022-11-04T09:38:19.000Z,10.00
2022-11-04T09:41:24.745Z,7.75
2022-11-04T09:44:47.978Z,10.50
2022-11-04T09:48:00.865Z,10.18
2022-11-04T09:50:57.336Z,13.77
2022-11-04T09:54:17.835Z,9.82
2022-11-04T09:57:49.020Z,13.27
2022-11-04T10:00:55.181Z,11.93
2022-11-04T10:08:31.640Z,15.52
2022-11-04T10:15:29.259Z,13.85
2022-11-04T10:21:58.702Z,12.25
2022-11-04T10:24:56.611Z,10.13
2022-11-04T10:27:57.267Z,10.43
2022-11-04T10:39:02.373Z,11.82
2022-11-04T10:42:13.319Z,10.82
2022-11-04T10:45:05.916Z,12.00
2022-11-04T10:48:07.761Z,19.33
2022-11-04T10:51:14.753Z,29.85
2022-11-04T10:54:32.798Z,14.13
2022-11-04T10:58:01.187Z,15.85
2022-11-04T11:00:54.753Z,13.55
2022-11-04T11:07:25.392Z,21.50
2022-11-04T11:10:24.019Z,24.17
2022-11-04T11:13:41.494Z,17.77
2022-11-04T11:17:05.511Z,15.48
2022-11-04T11:20:16.229Z,10.60
2022-11-04T11:23:14.664Z,27.65
2022-11-04T11:26:12.676Z,10.30
2022-11-04T11:29:18.581Z,7.68
2022-11-04T11:32:03.873Z,15.10
2022-11-04T11:34:55.152Z,10.85
2022-11-04T11:37:30.459Z,11.35
2022-11-04T11:40:12.955Z,9.90
2022-11-04T11:42:55.265Z,12.10
2022-11-04T11:45:36.826Z,8.90
2022-11-04T11:48:46.982Z,9.07
2022-11-04T11:52:23.482Z,8.45
2022-11-04T11:55:29.831Z,11.63
2022-11-04T12:02:30.158Z,8.65
2022-11-04T12:06:20.349Z,10.73
2022-11-04T12:09:34.076Z,11.38
2022-11-04T12:13:06.354Z,8.48
2022-11-04T12:20:59.596Z,16.50
2022-11-04T12:35:16.112Z,14.38
2022-11-04T12:39:19.824Z,11.45
2022-11-04T12:42:33.246Z,13.38
2022-11-04T12:45:42.755Z,13.13
2022-11-04T12:48:57.856Z,14.07
2022-11-04T12:52:23.078Z,13.98
2022-11-04T12:56:06.465Z,15.75
2022-11-04T13:03:11.700Z,16.65
2022-11-04T13:06:08.545Z,22.65
2022-11-04T13:08:47.992Z,18.60
2022-11-04T13:14:55.674Z,14.40
2022-11-04T13:21:03.781Z,25.73
2022-11-04T13:23:50.746Z,15.20
2022-11-04T13:26:42.042Z,17.25
2022-11-04T13:29:39.978Z,18.45
2022-11-04T13:32:47.293Z,17.20
2022-11-04T13:35:39.853Z,16.00
2022-11-04T13:41:57.192Z,15.27
2022-11-04T13:44:45.801Z,16.55
2022-11-04T13:48:20.776Z,22.88
2022-11-04T13:51:18.910Z,15.13
2022-11-04T13:54:31.380Z,13.65
2022-11-04T13:57:25.776Z,16.38
2022-11-04T14:00:54.829Z,16.45
2022-11-04T14:08:10.577Z,17.08
2022-11-04T14:11:36.310Z,15.93
2022-11-04T14:22:44.118Z,26.48
2022-11-04T14:26:17.427Z,19.50
2022-11-04T14:29:32.883Z,26.70
2022-11-04T14:33:16.986Z,28.40
2022-11-04T14:37:03.063Z,27.88
2022-11-04T14:40:18.636Z,27.52
2022-11-04T14:43:02.962Z,21.15
2022-11-04T14:45:56.793Z,14.52
2022-11-04T14:48:54.441Z,19.90
2022-11-04T14:51:37.685Z,17.67
2022-11-04T14:54:53.067Z,21.77
2022-11-04T14:57:47.664Z,19.33
2022-11-04T15:00:46.915Z,19.40
2022-11-04T15:04:11.399Z,17.13
2022-11-04T15:07:09.811Z,25.52
2022-11-04T15:09:51.753Z,23.33
2022-11-04T15:12:50.492Z,20.98
2022-11-04T15:16:06.369Z,18.35
2022-11-04T15:19:20.249Z,20.10
2022-11-04T15:22:07.723Z,23.23
2022-11-04T15:25:12.267Z,26.05
2022-11-04T15:27:54.387Z,23.95
2022-11-04T15:30:26.720Z,19.88
2022-11-04T15:33:19.176Z,31.90
2022-11-04T15:35:58.020Z,19.48
2022-11-04T15:38:32.810Z,22.25
2022-11-04T15:41:19.317Z,20.60
2022-11-04T15:43:52.100Z,21.10
2022-11-04T15:46:21.945Z,22.80
2022-11-04T15:49:31.779Z,24.15
2022-11-04T15:52:27.868Z,17.55
2022-11-04T15:55:08.653Z,17.75
2022-11-04T15:58:00.816Z,19.02
2022-11-04T16:00:47.872Z,22.75
2022-11-04T16:03:32.826Z,22.17
2022-11-04T16:06:35.518Z,23.27
2022-11-04T16:09:32.373Z,21.08
2022-11-04T16:12:28.157Z,24.17
2022-11-04T16:15:10.765Z,23.73
2022-11-04T16:17:50.373Z,21.25
2022-11-04T16:20:28.351Z,22.25
2022-11-04T16:23:33.272Z,28.55
2022-11-04T16:26:17.884Z,17.25
2022-11-04T16:29:15.964Z,21.80
2022-11-04T16:32:23.824Z,28.13
2022-11-04T16:35:03.856Z,28.40
2022-11-04T16:37:38.759Z,19.08
2022-11-04T16:40:23.333Z,27.20
2022-11-04T16:45:54.069Z,23.80
2022-11-04T16:48:31.091Z,22.98
2022-11-04T16:51:06.161Z,16.05
2022-11-04T16:53:56.625Z,22.08
2022-11-04T16:56:42.897Z,25.92
2022-11-04T16:59:27.901Z,23.20
2022-11-04T17:02:21.541Z,27.17
2022-11-04T17:05:20.281Z,26.65
2022-11-04T17:08:16.909Z,21.90
2022-11-04T17:11:19.125Z,23.42
2022-11-04T17:14:04.936Z,23.98
2022-11-04T17:17:03.466Z,23.80
2022-11-04T17:19:50.867Z,27.27
2022-11-04T17:22:26.959Z,18.95
2022-11-04T17:25:18.680Z,24.92
2022-11-04T17:27:56.720Z,23.00
2022-11-04T17:30:52.954Z,21.83
2022-11-04T17:34:40.463Z,22.90
2022-11-04T17:37:37.640Z,24.88
2022-11-04T17:40:26.863Z,20.83
2022-11-04T17:43:36.770Z,26.55
2022-11-04T17:47:02.265Z,23.60
2022-11-04T17:50:00.120Z,20.67
2022-11-04T17:57:15.304Z,22.95
2022-11-04T18:00:06.112Z,20.30
2022-11-04T18:03:23.675Z,23.33
2022-11-04T18:06:30.038Z,26.95
2022-11-04T18:09:11.376Z,24.25
2022-11-04T18:12:15.374Z,22.45
2022-11-04T18:15:22.725Z,23.92
2022-11-04T18:18:28.326Z,26.55
2022-11-04T18:24:16.917Z,21.52
2022-11-04T18:26:51.773Z,27.95
2022-11-04T18:29:27.302Z,22.85
2022-11-04T18:32:01.617Z,22.13
2022-11-04T18:34:37.841Z,22.25
2022-11-04T18:37:13.981Z,26.38
2022-11-04T18:39:45.955Z,23.48
2022-11-04T18:42:27.712Z,25.10
2022-11-04T18:45:00.443Z,23.35
2022-11-04T18:47:52.897Z,21.65
2022-11-04T18:50:48.690Z,28.52
2022-11-04T18:53:46.647Z,24.20
2022-11-04T18:56:29.512Z,25.15
2022-11-04T18:59:17.223Z,28.48
2022-11-04T19:01:48.196Z,23.45
2022-11-04T19:04:26.074Z,19.92
2022-11-04T19:07:02.272Z,20.70
2022-11-04T19:09:48.992Z,24.08
2022-11-04T19:12:47.234Z,20.98
2022-11-04T19:15:36.158Z,24.02
2022-11-04T19:18:19.276Z,27.13
2022-11-04T19:20:58.012Z,22.25
2022-11-04T19:23:34.344Z,24.67
2022-11-04T19:26:35.766Z,19.63
2022-11-04T19:29:19.210Z,22.70
2022-11-04T19:31:55.914Z,26.30
2022-11-04T19:34:36.238Z,23.58
2022-11-04T19:37:41.707Z,26.13
2022-11-04T19:40:26.986Z,23.35
2022-11-04T19:43:11.290Z,21.65
2022-11-04T19:45:42.644Z,23.50
2022-11-04T19:48:15.322Z,23.83
2022-11-04T19:50:51.128Z,24.98
2022-11-04T19:53:25.392Z,25.42
2022-11-04T19:55:59.258Z,27.15
2022-11-04T19:58:33.689Z,23.55
2022-11-04T20:01:21.874Z,25.60
2022-11-04T20:04:09.690Z,22.23
2022-11-04T20:06:46.132Z,22.70
2022-11-04T20:09:52.822Z,25.23
2022-11-04T20:12:56.795Z,23.92
2022-11-04T20:16:06.760Z,24.70
2022-11-04T20:19:01.502Z,23.85
2022-11-04T20:22:04.124Z,22.17
2022-11-04T20:25:13.285Z,25.50
2022-11-04T20:28:31.212Z,22.05
2022-11-04T20:31:39.024Z,24.10
2022-11-04T20:34:31.671Z,25.60
2022-11-04T20:37:14.573Z,22.65
2022-11-04T20:39:58.966Z,22.70
2022-11-04T20:43:08.965Z,24.75
2022-11-04T20:46:41.773Z,24.05
2022-11-04T20:49:17.983Z,24.27
2022-11-04T20:55:22.877Z,25.98
2022-11-04T20:58:23.998Z,24.27
2022-11-04T21:01:31.416Z,21.02
2022-11-04T21:04:36.508Z,18.58
2022-11-04T21:07:21.758Z,22.20
2022-11-04T21:13:12.783Z,20.77
2022-11-04T21:15:57.600Z,22.98
2022-11-04T21:18:44.516Z,21.05
2022-11-04T21:21:47.714Z,22.20
2022-11-04T21:24:50.029Z,21.83
2022-11-04T21:30:33.333Z,18.73
2022-11-04T21:33:22.989Z,25.15
2022-11-04T21:35:57.613Z,21.00
2022-11-04T21:38:29.350Z,24.48
2022-11-04T21:41:06.819Z,18.55
2022-11-04T21:43:49.863Z,21.30
2022-11-04T21:46:53.650Z,16.65
2022-11-04T21:49:31.328Z,18.05
2022-11-04T21:52:10.428Z,18.73
2022-11-04T21:54:44.397Z,23.80
2022-11-04T21:57:13.912Z,20.98
2022-11-04T22:00:00.233Z,20.60
2022-11-04T22:02:48.593Z,19.48
2022-11-04T22:05:28.255Z,22.45
2022-11-04T22:08:21.656Z,16.88
2022-11-04T22:11:30.818Z,18.05
2022-11-04T22:14:08.950Z,21.33
2022-11-04T22:17:06.953Z,21.38
2022-11-04T22:19:56.219Z,20.38
2022-11-04T22:23:03.333Z,17.73
2022-11-04T22:25:35.811Z,18.92
2022-11-04T22:28:13.123Z,20.02
2022-11-04T22:30:45.062Z,20.45
2022-11-04T22:33:21.903Z,16.38
2022-11-04T22:35:57.837Z,18.85
2022-11-04T22:41:23.597Z,17.25
2022-11-04T22:44:01.853Z,21.85
2022-11-04T22:46:37.659Z,20.73
2022-11-04T22:49:27.100Z,24.85
2022-11-04T22:52:19.330Z,19.02
2022-11-04T22:54:59.787Z,20.83
2022-11-04T22:58:22.038Z,22.90
2022-11-04T23:01:34.079Z,19.27
2022-11-04T23:04:16.863Z,20.70
2022-11-04T23:07:13.532Z,17.40
2022-11-04T23:10:07.726Z,17.23
2022-11-04T23:13:14.414Z,22.40
2022-11-04T23:16:00.817Z,23.08
2022-11-04T23:18:58.863Z,18.27
2022-11-04T23:21:47.875Z,23.13
2022-11-04T23:24:36.863Z,18.25
2022-11-04T23:27:20.397Z,20.13
2022-11-04T23:30:11.893Z,16.50
2022-11-04T23:33:03.986Z,20.20
2022-11-04T23:35:54.391Z,17.58
2022-11-04T23:42:10.622Z,20.42
2022-11-04T23:45:10.872Z,21.00
2022-11-04T23:48:22.326Z,19.23
2022-11-04T23:51:33.170Z,18.17
2022-11-04T23:54:26.771Z,22.13
2022-11-04T23:57:34.160Z,19.65
